createdAt,value
2019-04-22T00:01:58.121Z,7.10
2019-04-22T00:04:42.081Z,7.03
2019-04-22T00:07:18.849Z,8.17
2019-04-22T00:09:51.470Z,7.37
2019-04-22T00:12:32.786Z,7.20
2019-04-22T00:14:52.542Z,8.10
2019-04-22T00:17:30.378Z,7.87
2019-04-22T00:22:29.162Z,7.03
2019-04-22T00:25:03.387Z,7.27
2019-04-22T00:27:39.049Z,8.53
2019-04-22T00:30:07.883Z,8.83
2019-04-22T00:32:37.032Z,9.13
2019-04-22T00:35:13.335Z,8.37
2019-04-22T00:37:48.068Z,8.83
2019-04-22T00:40:21.297Z,7.97
2019-04-22T00:42:47.637Z,9.20
2019-04-22T00:45:24.913Z,8.27
2019-04-22T00:47:43.605Z,8.10
2019-04-22T00:52:59.919Z,9.20
2019-04-22T00:55:24.871Z,9.20
2019-04-22T00:58:06.264Z,8.47
2019-04-22T01:03:01.671Z,9.00
2019-04-22T01:05:34.434Z,8.60
2019-04-22T01:08:08.143Z,8.77
2019-04-22T01:10:31.720Z,9.20
2019-04-22T01:13:04.722Z,8.13
2019-04-22T01:15:40.798Z,8.13
2019-04-22T01:18:02.188Z,7.87
2019-04-22T01:23:08.117Z,7.97
2019-04-22T01:25:39.087Z,8.60
2019-04-22T01:28:02.397Z,7.60
2019-04-22T01:30:30.360Z,8.17
2019-04-22T01:32:54.134Z,7.77
2019-04-22T01:35:34.560Z,8.00
2019-04-22T01:38:07.801Z,7.40
2019-04-22T01:40:53.936Z,7.70
2019-04-22T01:43:30.111Z,7.20
2019-04-22T01:45:54.379Z,7.97
2019-04-22T01:48:26.893Z,7.57
2019-04-22T01:50:49.674Z,8.50
2019-04-22T01:53:27.609Z,6.80
2019-04-22T01:55:59.087Z,8.47
2019-04-22T01:58:23.459Z,8.90
2019-04-22T02:00:59.979Z,8.00
2019-04-22T02:03:38.074Z,8.70
2019-04-22T02:06:07.215Z,9.00
2019-04-22T02:08:44.900Z,7.00
2019-04-22T02:11:07.715Z,8.17
2019-04-22T02:13:36.387Z,8.97
2019-04-22T02:16:17.934Z,7.80
2019-04-22T02:19:00.895Z,7.47
2019-04-22T02:21:09.338Z,7.77
2019-04-22T02:23:51.288Z,8.20
2019-04-22T02:26:15.577Z,7.77
2019-04-22T02:28:52.436Z,7.97
2019-04-22T02:51:30.105Z,7.90
2019-04-22T02:56:31.755Z,8.03
2019-04-22T03:01:36.888Z,7.63
2019-04-22T03:04:29.982Z,7.73
2019-04-22T03:22:00.676Z,7.23
2019-04-22T03:26:48.565Z,7.43
2019-04-22T03:30:36.482Z,7.40
2019-04-22T03:32:59.512Z,7.83
2019-04-22T03:35:31.140Z,7.40
2019-04-22T03:42:38.537Z,7.20
2019-04-22T03:45:19.685Z,7.20
2019-04-22T03:50:22.666Z,7.73
2019-04-22T03:52:34.662Z,7.43
2019-04-22T04:02:57.505Z,8.60
2019-04-22T04:07:55.228Z,7.67
2019-04-22T04:10:27.825Z,7.33
2019-04-22T04:12:58.150Z,7.87
2019-04-22T04:15:26.631Z,7.33
2019-04-22T04:20:32.258Z,7.47
2019-04-22T04:23:21.243Z,8.60
2019-04-22T04:28:26.519Z,7.40
2019-04-22T04:33:05.050Z,7.30
2019-04-22T04:35:42.875Z,7.57
2019-04-22T04:37:58.763Z,7.90
2019-04-22T04:40:33.175Z,8.60
2019-04-22T04:43:07.705Z,9.00
2019-04-22T04:48:13.698Z,7.03
2019-04-22T04:50:51.085Z,7.30
2019-04-22T04:56:02.053Z,8.30
2019-04-22T05:03:57.179Z,7.57
2019-04-22T05:05:47.698Z,7.80
2019-04-22T05:08:34.979Z,8.83
2019-04-22T05:13:26.650Z,7.93
2019-04-22T05:16:14.271Z,9.80
2019-04-22T05:18:31.204Z,9.00
2019-04-22T05:23:32.438Z,8.53
2019-04-22T05:25:57.371Z,9.17
2019-04-22T05:28:24.562Z,9.80
2019-04-22T05:31:03.383Z,8.53
2019-04-22T05:33:29.944Z,9.07
2019-04-22T05:36:02.980Z,8.63
2019-04-22T05:41:02.318Z,9.07
2019-04-22T05:43:38.163Z,9.43
2019-04-22T05:46:02.944Z,8.07
2019-04-22T05:48:37.957Z,9.50
2019-04-22T05:51:10.312Z,9.33
2019-04-22T05:53:45.409Z,9.13
2019-04-22T05:56:23.793Z,9.30
2019-04-22T05:58:46.407Z,9.03
2019-04-22T06:01:38.812Z,9.30
2019-04-22T06:03:56.598Z,8.67
2019-04-22T06:08:53.771Z,8.20
2019-04-22T06:11:29.436Z,8.53
2019-04-22T06:13:46.554Z,8.47
2019-04-22T06:16:26.413Z,9.70
2019-04-22T06:19:00.914Z,8.50
2019-04-22T06:21:28.152Z,8.03
2019-04-22T06:26:39.480Z,7.27
2019-04-22T06:29:07.374Z,9.43
2019-04-22T06:31:36.906Z,6.70
2019-04-22T06:34:03.908Z,6.97
2019-04-22T06:36:37.540Z,6.53
2019-04-22T06:39:12.896Z,6.17
2019-04-22T06:41:33.261Z,5.90
2019-04-22T06:44:14.363Z,5.37
2019-04-22T06:46:41.984Z,6.57
2019-04-22T06:49:09.633Z,7.80
2019-04-22T06:51:37.534Z,5.50
2019-04-22T06:54:17.622Z,5.20
2019-04-22T06:56:42.619Z,5.53
2019-04-22T06:59:14.847Z,5.13
2019-04-22T07:01:48.623Z,5.43
2019-04-22T07:04:16.627Z,5.30
2019-04-22T07:07:00.468Z,5.20
2019-04-22T07:11:53.059Z,4.80
2019-04-22T07:14:18.454Z,5.00
2019-04-22T07:16:56.144Z,4.90
2019-04-22T07:19:31.912Z,5.13
2019-04-22T07:21:57.571Z,4.37
2019-04-22T07:27:01.937Z,4.00
2019-04-22T07:29:32.727Z,4.10
2019-04-22T07:32:00.420Z,3.90
2019-04-22T07:34:33.216Z,4.30
2019-04-22T07:37:19.761Z,3.87
2019-04-22T07:39:35.138Z,4.10
2019-04-22T07:42:12.720Z,4.17
2019-04-22T07:44:43.592Z,4.30
2019-04-22T07:49:45.181Z,4.30
2019-04-22T07:52:15.883Z,3.73
2019-04-22T07:54:46.871Z,3.70
2019-04-22T07:57:20.199Z,3.50
2019-04-22T07:59:50.954Z,3.73
2019-04-22T08:02:26.200Z,3.58
2019-04-22T08:04:59.046Z,3.10
2019-04-22T08:07:23.834Z,3.08
2019-04-22T08:09:59.718Z,3.20
2019-04-22T08:12:33.195Z,3.40
2019-04-22T08:14:53.820Z,2.90
2019-04-22T08:20:02.742Z,2.70
2019-04-22T08:22:28.356Z,2.90
2019-04-22T08:25:03.227Z,2.98
2019-04-22T08:27:31.459Z,2.80
2019-04-22T08:30:08.603Z,2.90
2019-04-22T08:32:34.590Z,2.90
2019-04-22T08:35:04.602Z,2.83
2019-04-22T08:37:48.731Z,2.47
2019-04-22T08:40:15.449Z,2.62
2019-04-22T08:45:18.755Z,2.97
2019-04-22T08:47:42.258Z,2.87
2019-04-22T08:50:13.885Z,2.90
2019-04-22T08:52:54.873Z,2.87
2019-04-22T08:55:20.857Z,2.70
2019-04-22T09:00:21.556Z,2.80
2019-04-22T09:02:53.731Z,2.60
2019-04-22T09:05:39.058Z,2.90
2019-04-22T09:07:52.058Z,2.63
2019-04-22T09:10:23.927Z,3.10
2019-04-22T09:15:30.414Z,2.80
2019-04-22T09:18:02.049Z,2.93
2019-04-22T09:20:32.686Z,2.80
2019-04-22T09:25:34.246Z,2.70
2019-04-22T09:28:00.749Z,2.80
2019-04-22T09:30:43.361Z,2.90
2019-04-22T09:33:14.160Z,2.70
2019-04-22T09:35:45.389Z,2.50
2019-04-22T09:40:44.018Z,2.77
2019-04-22T09:43:16.950Z,2.40
2019-04-22T09:45:43.232Z,2.60
2019-04-22T09:48:16.600Z,2.60
2019-04-22T09:50:47.988Z,2.80
2019-04-22T09:53:22.550Z,2.50
2019-04-22T09:55:53.157Z,3.20
2019-04-22T09:58:29.658Z,2.70
2019-04-22T10:01:19.128Z,2.53
2019-04-22T10:03:44.966Z,2.60
2019-04-22T10:06:22.831Z,2.70
2019-04-22T10:08:54.170Z,2.83
2019-04-22T10:11:23.613Z,2.80
2019-04-22T10:13:50.762Z,3.10
2019-04-22T10:16:27.124Z,3.10
2019-04-22T10:18:52.947Z,2.50
2019-04-22T10:21:27.251Z,2.60
2019-04-22T10:23:54.776Z,3.13
2019-04-22T10:26:28.031Z,2.80
2019-04-22T10:29:01.440Z,3.20
2019-04-22T10:31:34.812Z,3.10
2019-04-22T10:33:49.646Z,3.23
2019-04-22T10:36:03.614Z,3.20
2019-04-22T10:38:34.629Z,3.10
2019-04-22T10:41:04.893Z,2.90
2019-04-22T10:43:34.954Z,2.77
2019-04-22T10:46:06.124Z,2.80
2019-04-22T10:48:36.984Z,3.10
2019-04-22T10:51:06.642Z,2.87
2019-04-22T10:53:37.579Z,3.03
2019-04-22T10:56:07.280Z,3.00
2019-04-22T10:58:38.311Z,2.60
2019-04-22T11:01:09.441Z,2.57
2019-04-22T11:03:39.575Z,2.50
2019-04-22T11:06:09.676Z,2.70
2019-04-22T11:08:46.701Z,2.90
2019-04-22T11:11:23.190Z,2.60
2019-04-22T11:13:42.066Z,2.80
2019-04-22T11:16:11.784Z,2.67
2019-04-22T11:18:41.411Z,2.43
2019-04-22T11:21:11.899Z,2.40
2019-04-22T11:23:42.684Z,3.07
2019-04-22T11:26:12.366Z,2.50
2019-04-22T11:28:43.391Z,2.80
2019-04-22T11:31:14.553Z,2.50
2019-04-22T11:33:44.794Z,2.30
2019-04-22T11:36:15.814Z,2.40
2019-04-22T11:38:52.368Z,2.50
2019-04-22T11:41:17.092Z,2.07
2019-04-22T11:43:47.376Z,2.77
2019-04-22T11:46:17.697Z,2.60
2019-04-22T11:48:47.724Z,2.33
2019-04-22T11:51:18.207Z,2.40
2019-04-22T11:53:49.028Z,2.40
2019-04-22T11:56:18.922Z,2.30
2019-04-22T11:58:48.849Z,2.60
2019-04-22T12:01:19.260Z,2.30
2019-04-22T12:03:49.596Z,2.10
2019-04-22T12:06:20.306Z,2.50
2019-04-22T12:08:50.102Z,2.30
2019-04-22T12:11:20.660Z,2.30
2019-04-22T12:13:51.643Z,2.50
2019-04-22T12:16:21.451Z,2.50
2019-04-22T12:18:51.441Z,2.43
2019-04-22T12:21:21.438Z,2.40
2019-04-22T12:23:51.053Z,2.30
2019-04-22T12:26:24.634Z,2.33
2019-04-22T12:28:53.264Z,2.33
2019-04-22T12:31:23.813Z,2.40
2019-04-22T12:33:54.995Z,2.30
2019-04-22T12:36:24.667Z,2.40
2019-04-22T12:38:55.325Z,2.80
2019-04-22T12:41:25.829Z,2.70
2019-04-22T12:43:55.564Z,2.60
2019-04-22T12:46:26.059Z,2.40
2019-04-22T12:48:56.262Z,2.73
2019-04-22T12:51:27.079Z,2.83
2019-04-22T12:53:57.265Z,2.33
2019-04-22T12:56:27.821Z,2.43
2019-04-22T12:58:59.268Z,2.50
2019-04-22T13:01:30.772Z,2.73
2019-04-22T13:04:05.787Z,2.80
2019-04-22T13:06:32.015Z,2.40
2019-04-22T13:09:02.173Z,2.40
2019-04-22T13:11:36.439Z,2.73
2019-04-22T13:14:05.094Z,2.40
2019-04-22T13:16:35.269Z,2.50
2019-04-22T13:19:10.955Z,2.60
2019-04-22T13:21:36.600Z,3.13
2019-04-22T13:24:07.053Z,2.90
2019-04-22T13:26:38.102Z,2.67
2019-04-22T13:29:09.050Z,2.80
2019-04-22T13:31:40.362Z,3.10
2019-04-22T13:34:19.974Z,3.27
2019-04-22T13:36:43.544Z,3.10
2019-04-22T13:39:13.274Z,3.20
2019-04-22T13:41:48.782Z,3.00
2019-04-22T13:44:14.638Z,3.00
2019-04-22T13:47:02.081Z,2.93
2019-04-22T13:49:54.145Z,3.00
2019-04-22T13:52:20.709Z,3.27
2019-04-22T13:54:48.189Z,2.97
2019-04-22T13:57:14.894Z,3.40
2019-04-22T13:59:28.763Z,3.20
2019-04-22T14:02:12.589Z,3.10
2019-04-22T14:04:43.114Z,2.83
2019-04-22T14:07:12.776Z,3.27
2019-04-22T14:09:42.424Z,3.00
2019-04-22T14:12:14.244Z,3.27
2019-04-22T14:14:46.163Z,3.97
2019-04-22T14:17:16.781Z,3.37
2019-04-22T14:19:46.639Z,3.30
2019-04-22T14:22:17.747Z,3.50
2019-04-22T14:24:48.958Z,3.60
2019-04-22T14:27:30.565Z,3.40
2019-04-22T14:29:49.702Z,3.57
2019-04-22T14:32:23.938Z,3.20
2019-04-22T14:34:51.144Z,3.10
2019-04-22T14:37:22.382Z,4.70
2019-04-22T14:39:53.832Z,5.17
2019-04-22T14:44:08.382Z,3.77
2019-04-22T14:47:51.327Z,3.70
2019-04-22T14:50:20.665Z,3.50
2019-04-22T14:52:52.365Z,3.93
2019-04-22T14:55:08.001Z,3.63
2019-04-22T14:57:34.296Z,5.80
2019-04-22T15:00:04.369Z,3.60
2019-04-22T15:02:34.044Z,3.30
2019-04-22T15:05:03.918Z,6.53
2019-04-22T15:07:35.009Z,3.70
2019-04-22T15:10:06.109Z,3.70
2019-04-22T15:12:43.660Z,4.27
2019-04-22T15:15:19.661Z,3.33
2019-04-22T15:18:10.081Z,3.40
2019-04-22T15:20:50.211Z,3.60
2019-04-22T15:23:20.264Z,3.33
2019-04-22T15:25:50.754Z,3.43
2019-04-22T15:28:21.648Z,5.53
2019-04-22T15:30:51.354Z,3.10
2019-04-22T15:33:21.493Z,3.30
2019-04-22T15:35:51.555Z,5.00
2019-04-22T15:38:23.769Z,3.50
2019-04-22T15:40:56.551Z,3.57
2019-04-22T15:43:29.733Z,3.70
2019-04-22T15:46:00.466Z,3.90
2019-04-22T15:48:32.303Z,3.57
2019-04-22T15:51:02.848Z,3.63
2019-04-22T15:53:35.802Z,3.73
2019-04-22T15:56:06.097Z,3.80
2019-04-22T15:58:35.880Z,3.40
2019-04-22T16:01:15.141Z,3.63
2019-04-22T16:03:40.670Z,4.33
2019-04-22T16:06:10.382Z,3.70
2019-04-22T16:08:41.132Z,3.53
2019-04-22T16:11:11.712Z,3.77
2019-04-22T16:13:42.316Z,4.03
2019-04-22T16:16:12.446Z,4.70
2019-04-22T16:18:42.254Z,4.00
2019-04-22T16:21:13.107Z,3.87
2019-04-22T16:23:50.142Z,4.90
2019-04-22T16:26:26.463Z,3.77
2019-04-22T16:28:58.101Z,4.33
2019-04-22T16:31:29.209Z,3.77
2019-04-22T16:34:00.408Z,4.00
2019-04-22T16:36:31.073Z,4.17
2019-04-22T16:39:00.885Z,5.27
2019-04-22T16:41:34.717Z,4.10
2019-04-22T16:44:04.651Z,4.10
2019-04-22T16:46:34.226Z,4.43
2019-04-22T16:49:05.524Z,4.70
2019-04-22T16:51:36.188Z,3.97
2019-04-22T16:54:08.363Z,3.97
2019-04-22T16:56:39.686Z,4.00
2019-04-22T16:59:10.741Z,4.07
2019-04-22T17:02:00.889Z,3.97
2019-04-22T17:04:46.598Z,4.00
2019-04-22T17:07:18.073Z,5.40
2019-04-22T17:09:48.094Z,4.00
2019-04-22T17:12:17.703Z,6.33
2019-04-22T17:14:54.738Z,4.10
2019-04-22T17:17:20.327Z,4.10
2019-04-22T17:19:51.260Z,5.03
2019-04-22T17:22:21.727Z,3.60
2019-04-22T17:24:51.910Z,3.50
2019-04-22T17:27:22.352Z,3.97
2019-04-22T17:29:54.635Z,3.93
2019-04-22T17:32:25.357Z,7.80
2019-04-22T17:34:57.269Z,4.40
2019-04-22T17:37:30.404Z,7.30
2019-04-22T17:40:17.949Z,3.50
2019-04-22T17:42:49.520Z,3.50
2019-04-22T17:45:34.149Z,3.70
2019-04-22T17:48:23.657Z,3.30
2019-04-22T17:51:07.142Z,3.30
2019-04-22T17:53:33.407Z,3.40
2019-04-22T17:56:02.693Z,3.33
2019-04-22T17:58:40.228Z,3.67
2019-04-22T18:01:04.330Z,3.80
2019-04-22T18:03:24.377Z,3.73
2019-04-22T18:05:52.147Z,4.00
2019-04-22T18:08:34.302Z,3.57
2019-04-22T18:11:13.463Z,3.50
2019-04-22T18:13:37.948Z,3.83
2019-04-22T18:16:14.535Z,4.50
2019-04-22T18:18:43.386Z,3.63
2019-04-22T18:21:12.048Z,3.43
2019-04-22T18:23:29.415Z,3.50
2019-04-22T18:26:14.943Z,3.47
2019-04-22T18:28:52.528Z,3.30
2019-04-22T18:31:15.752Z,2.97
2019-04-22T18:33:48.973Z,2.70
2019-04-22T18:36:21.258Z,3.17
2019-04-22T18:38:58.695Z,2.90
2019-04-22T18:41:19.643Z,3.07
2019-04-22T18:43:58.964Z,2.40
2019-04-22T18:46:30.120Z,2.60
2019-04-22T18:48:58.147Z,2.67
2019-04-22T18:51:38.702Z,2.70
2019-04-22T18:54:16.618Z,2.70
2019-04-22T18:56:47.756Z,2.53
2019-04-22T18:59:11.927Z,2.53
2019-04-22T19:01:31.587Z,2.23
2019-04-22T19:04:09.028Z,2.63
2019-04-22T19:06:56.181Z,2.30
2019-04-22T19:09:29.583Z,3.30
2019-04-22T19:12:08.737Z,2.70
2019-04-22T19:14:39.078Z,3.47
2019-04-22T19:17:11.486Z,2.23
2019-04-22T19:19:35.047Z,3.37
2019-04-22T19:22:02.241Z,2.80
2019-04-22T19:24:31.999Z,2.50
2019-04-22T19:27:02.298Z,2.80
2019-04-22T19:29:39.232Z,2.90
2019-04-22T19:32:06.883Z,3.07
2019-04-22T19:34:38.250Z,2.80
2019-04-22T19:37:11.470Z,3.37
2019-04-22T19:39:40.921Z,3.67
2019-04-22T19:42:20.646Z,3.43
2019-04-22T19:44:46.925Z,3.53
2019-04-22T19:47:24.076Z,3.20
2019-04-22T19:49:52.518Z,3.10
2019-04-22T19:52:24.476Z,3.67
2019-04-22T19:54:58.364Z,3.23
2019-04-22T19:57:24.913Z,3.70
2019-04-22T19:59:51.062Z,3.20
2019-04-22T20:02:45.198Z,3.90
2019-04-22T20:05:29.664Z,3.80
2019-04-22T20:07:49.685Z,3.43
2019-04-22T20:10:26.469Z,3.97
2019-04-22T20:12:52.914Z,4.30
2019-04-22T20:15:26.914Z,4.67
2019-04-22T20:18:22.002Z,3.90
2019-04-22T20:20:52.894Z,4.13
2019-04-22T20:23:02.870Z,5.00
2019-04-22T20:25:34.864Z,4.40
2019-04-22T20:28:06.809Z,4.30
2019-04-22T20:30:39.841Z,4.50
2019-04-22T20:33:03.393Z,4.53
2019-04-22T20:35:45.229Z,5.63
2019-04-22T20:38:16.845Z,5.07
2019-04-22T20:40:39.863Z,5.20
2019-04-22T20:43:21.772Z,5.03
2019-04-22T20:45:46.652Z,5.23
2019-04-22T20:48:06.016Z,4.90
2019-04-22T20:50:48.052Z,5.67
2019-04-22T20:53:25.446Z,5.13
2019-04-22T20:55:52.407Z,5.13
2019-04-22T20:58:21.133Z,5.60
2019-04-22T21:00:46.448Z,6.30
2019-04-22T21:03:16.015Z,5.50
2019-04-22T21:05:48.227Z,5.70
2019-04-22T21:08:30.614Z,5.87
2019-04-22T21:10:51.001Z,5.30
2019-04-22T21:13:24.455Z,5.90
2019-04-22T21:16:04.567Z,5.70
2019-04-22T21:18:27.947Z,6.40
2019-04-22T21:21:07.141Z,6.00
2019-04-22T21:23:30.082Z,5.90
2019-04-22T21:26:11.199Z,6.10
2019-04-22T21:28:38.566Z,5.97
2019-04-22T21:31:16.755Z,6.30
2019-04-22T21:33:44.256Z,6.53
2019-04-22T21:36:22.130Z,6.40
2019-04-22T21:38:45.390Z,6.40
2019-04-22T21:41:15.999Z,6.60
2019-04-22T21:43:48.239Z,6.43
2019-04-22T21:46:19.220Z,6.20
2019-04-22T21:48:46.185Z,7.40
2019-04-22T21:51:25.683Z,6.70
2019-04-22T21:53:57.503Z,6.37
2019-04-22T21:59:02.068Z,7.37
2019-04-22T22:04:17.573Z,6.83
2019-04-22T22:06:39.969Z,6.67
2019-04-22T22:09:20.475Z,8.07
2019-04-22T22:11:49.227Z,7.70
2019-04-22T22:14:22.426Z,7.10
2019-04-22T22:16:47.262Z,7.17
2019-04-22T22:19:25.463Z,7.80
2019-04-22T22:21:58.669Z,7.77
2019-04-22T22:24:28.646Z,8.13
2019-04-22T22:26:55.284Z,8.10
2019-04-22T22:29:46.954Z,7.80
2019-04-22T22:32:05.083Z,7.40
2019-04-22T22:34:31.447Z,8.70
2019-04-22T22:37:00.392Z,8.00
2019-04-22T22:39:26.027Z,7.53
2019-04-22T22:41:45.938Z,7.67
2019-04-22T22:44:24.421Z,7.50
2019-04-22T22:47:03.487Z,7.50
2019-04-22T22:49:45.198Z,7.40
2019-04-22T22:52:36.769Z,7.57
2019-04-22T22:54:48.633Z,7.60
2019-04-22T22:57:25.803Z,6.87
2019-04-22T22:59:44.183Z,8.03
2019-04-22T23:02:18.273Z,7.40
2019-04-22T23:04:54.661Z,7.10
2019-04-22T23:07:24.272Z,7.33
2019-04-22T23:09:58.528Z,6.57
2019-04-22T23:14:57.609Z,7.87
2019-04-22T23:17:11.883Z,7.80
2019-04-22T23:19:43.548Z,7.83
2019-04-22T23:22:20.553Z,8.20
2019-04-22T23:25:00.213Z,7.50
2019-04-22T23:27:51.464Z,6.90
2019-04-22T23:30:37.901Z,7.10
2019-04-22T23:33:21.873Z,7.93
2019-04-22T23:35:51.859Z,8.27
2019-04-22T23:38:31.982Z,7.47
2019-04-22T23:41:05.663Z,7.43
2019-04-22T23:43:44.011Z,7.50
2019-04-22T23:46:19.000Z,7.43
2019-04-22T23:48:33.513Z,7.83
2019-04-22T23:51:13.708Z,6.87
2019-04-22T23:56:16.927Z,7.70
2019-04-22T23:58:52.681Z,7.20
